Time;durP1;ratioP1;P1;durP2;ratioP2;P2;SDS_P1;SDS_P2;PMS_P1;PMS_P2;Temp;Humidity;BMP_temperature;BMP_pressure;BME280_temperature;BME280_humidity;BME280_pressure;Samples;Min_cycle;Max_cycle;Signal;HPM_P1;HPM_P2
2022/12/24 00:01:36;;;;;;;;;18.00;16.00;;;;;;;;114818;1196;25422;-79
2022/12/24 00:04:05;;;;;;;;;15.00;14.00;;;;;;;;114839;1203;24727;-83
2022/12/24 00:06:34;;;;;;;;;15.00;13.00;;;;;;;;114892;1208;24723;-80
2022/12/24 00:09:02;;;;;;;;;21.00;18.00;;;;;;;;114873;1203;25034;-79
2022/12/24 00:11:30;;;;;;;;;25.00;13.00;;;;;;;;114918;1203;25156;-85
2022/12/24 00:13:59;;;;;;;;;20.00;15.00;;;;;;;;114877;1206;25022;-89
2022/12/24 00:16:28;;;;;;;;;18.00;15.50;;;;;;;;114912;1203;25124;-82
2022/12/24 00:18:56;;;;;;;;;20.00;13.00;;;;;;;;114825;1203;25478;-77
2022/12/24 00:21:25;;;;;;;;;14.00;13.00;;;;;;;;114912;1203;25202;-79
2022/12/24 00:23:53;;;;;;;;;18.00;15.00;;;;;;;;114884;1198;25483;-79
2022/12/24 00:26:22;;;;;;;;;21.00;17.50;;;;;;;;114883;1199;25963;-79
2022/12/24 00:28:50;;;;;;;;;18.50;15.50;;;;;;;;114936;1203;24971;-79
2022/12/24 00:31:19;;;;;;;;;16.00;12.00;;;;;;;;114907;1206;24906;-79
2022/12/24 00:33:48;;;;;;;;;16.00;14.00;;;;;;;;114950;1200;24967;-79
2022/12/24 00:36:17;;;;;;;;;15.50;12.00;;;;;;;;114943;1203;24813;-79
2022/12/24 00:38:46;;;;;;;;;20.33;14.33;;;;;;;;114905;1206;24881;-79
2022/12/24 00:41:24;;;;;;;;;24.00;17.00;;;;;;;;114932;1197;24795;-79
2022/12/24 00:44:03;;;;;;;;;20.33;18.67;;;;;;;;114943;1200;25142;-79
2022/12/24 00:46:33;;;;;;;;;16.00;16.00;;;;;;;;114844;1200;24896;-79
2022/12/24 00:49:03;;;;;;;;;19.50;13.00;;;;;;;;114870;1206;24719;-79
2022/12/24 00:51:32;;;;;;;;;24.00;20.00;;;;;;;;114939;1203;25081;-79
2022/12/24 00:54:02;;;;;;;;;20.00;16.00;;;;;;;;114913;1196;24894;-79
2022/12/24 00:56:30;;;;;;;;;21.00;18.50;;;;;;;;114868;1206;24854;-79
2022/12/24 00:58:59;;;;;;;;;21.00;19.00;;;;;;;;114921;1200;25137;-79
2022/12/24 01:01:28;;;;;;;;;22.00;14.00;;;;;;;;114878;1206;24935;-79
2022/12/24 01:05:09;;;;;;;;;20.00;18.00;;;;;;;;114967;1204;25452;-79
2022/12/24 01:06:45;;;;;;;;;22.67;17.33;;;;;;;;114903;1206;25109;-79
2022/12/24 01:09:13;;;;;;;;;20.50;15.00;;;;;;;;114843;1195;25331;-79
2022/12/24 01:11:42;;;;;;;;;19.00;17.00;;;;;;;;114905;1206;26154;-79
2022/12/24 01:14:10;;;;;;;;;22.33;16.67;;;;;;;;114921;1208;26050;-79
2022/12/24 01:16:39;;;;;;;;;19.67;17.33;;;;;;;;115000;1198;24984;-79
2022/12/24 01:19:07;;;;;;;;;25.00;19.00;;;;;;;;114889;1203;24788;-79
2022/12/24 01:21:36;;;;;;;;;18.00;17.50;;;;;;;;114950;1203;25872;-79
2022/12/24 01:24:05;;;;;;;;;19.00;18.67;;;;;;;;114880;1207;25563;-78
2022/12/24 01:26:33;;;;;;;;;22.00;16.00;;;;;;;;114935;1203;25565;-79
2022/12/24 01:29:02;;;;;;;;;21.50;16.50;;;;;;;;114934;1200;26173;-79
2022/12/24 01:31:30;;;;;;;;;22.00;18.00;;;;;;;;114944;1206;25398;-79
2022/12/24 01:33:59;;;;;;;;;22.00;18.00;;;;;;;;114936;1208;25274;-79
2022/12/24 01:36:28;;;;;;;;;20.00;14.50;;;;;;;;114918;1198;25184;-79
2022/12/24 01:38:56;;;;;;;;;23.00;18.00;;;;;;;;114959;1206;25112;-79
2022/12/24 01:44:47;;;;;;;;;20.00;15.00;;;;;;;;114948;1201;24682;-80
2022/12/24 01:47:27;;;;;;;;;18.00;14.00;;;;;;;;114856;1208;25087;-79
2022/12/24 01:49:56;;;;;;;;;22.33;15.00;;;;;;;;114933;1203;25401;-79
2022/12/24 01:52:33;;;;;;;;;31.00;19.00;;;;;;;;114944;1203;25250;-79
2022/12/24 01:55:09;;;;;;;;;23.50;19.00;;;;;;;;114855;1206;24821;-79
2022/12/24 01:58:07;;;;;;;;;17.67;10.00;;;;;;;;114926;1201;24976;-79
2022/12/24 02:00:36;;;;;;;;;18.50;15.50;;;;;;;;114854;1207;25458;-79
2022/12/24 02:03:05;;;;;;;;;20.00;14.00;;;;;;;;114960;1199;25607;-79
2022/12/24 02:05:39;;;;;;;;;26.00;20.00;;;;;;;;114908;1200;25467;-79
2022/12/24 02:08:08;;;;;;;;;18.33;15.33;;;;;;;;114920;1200;25048;-79
2022/12/24 02:10:37;;;;;;;;;21.50;18.50;;;;;;;;114880;1198;25663;-80
2022/12/24 02:13:06;;;;;;;;;20.50;18.00;;;;;;;;114933;1200;24775;-79
2022/12/24 02:15:59;;;;;;;;;19.00;16.00;;;;;;;;114912;1203;24900;-79
2022/12/24 02:18:39;;;;;;;;;23.00;19.00;;;;;;;;114938;1203;25204;-79
2022/12/24 02:22:01;;;;;;;;;23.50;15.50;;;;;;;;114882;1206;25088;-79
2022/12/24 02:25:03;;;;;;;;;14.00;11.50;;;;;;;;114893;1206;25320;-79
2022/12/24 02:27:52;;;;;;;;;23.00;14.50;;;;;;;;114842;1200;25140;-79
2022/12/24 02:30:25;;;;;;;;;21.50;15.50;;;;;;;;114805;1206;25608;-79
2022/12/24 02:33:18;;;;;;;;;24.67;18.00;;;;;;;;114873;1200;25530;-79
2022/12/24 02:36:11;;;;;;;;;18.00;17.00;;;;;;;;114943;1203;24774;-79
2022/12/24 02:38:48;;;;;;;;;18.50;14.00;;;;;;;;114938;1201;25130;-79
2022/12/24 02:41:22;;;;;;;;;20.00;15.50;;;;;;;;114937;1203;25072;-79
2022/12/24 02:43:52;;;;;;;;;18.50;15.50;;;;;;;;114893;1198;25295;-79
2022/12/24 02:46:24;;;;;;;;;18.00;16.00;;;;;;;;114898;1199;25220;-79
2022/12/24 02:48:53;;;;;;;;;17.00;15.00;;;;;;;;114878;1200;25623;-79
2022/12/24 02:51:23;;;;;;;;;22.00;14.00;;;;;;;;114948;1199;25255;-79
2022/12/24 02:53:52;;;;;;;;;22.00;19.00;;;;;;;;114836;1206;25528;-78
2022/12/24 02:56:23;;;;;;;;;15.00;14.00;;;;;;;;114927;1204;25293;-78
2022/12/24 02:59:07;;;;;;;;;14.00;14.00;;;;;;;;114907;1200;25063;-78
2022/12/24 03:01:54;;;;;;;;;16.00;14.00;;;;;;;;114938;1207;25079;-79
2022/12/24 03:04:47;;;;;;;;;20.00;15.00;;;;;;;;114796;1203;26314;-79
2022/12/24 03:07:16;;;;;;;;;24.50;17.00;;;;;;;;114951;1203;25321;-79
2022/12/24 03:09:50;;;;;;;;;23.00;19.00;;;;;;;;114831;1203;25406;-79
2022/12/24 03:12:26;;;;;;;;;18.00;16.00;;;;;;;;114895;1201;25009;-77
2022/12/24 03:14:54;;;;;;;;;19.67;18.00;;;;;;;;114886;1205;25623;-78
2022/12/24 03:17:23;;;;;;;;;21.00;12.00;;;;;;;;114953;1206;25590;-78
2022/12/24 03:19:53;;;;;;;;;22.00;18.00;;;;;;;;114879;1206;25343;-79
2022/12/24 03:22:24;;;;;;;;;23.00;19.00;;;;;;;;114877;1203;25455;-78
2022/12/24 03:24:52;;;;;;;;;21.33;13.67;;;;;;;;114842;1200;25747;-79
2022/12/24 03:27:21;;;;;;;;;21.00;18.00;;;;;;;;114878;1200;25056;-79
2022/12/24 03:29:50;;;;;;;;;21.00;16.00;;;;;;;;114904;1203;25011;-79
2022/12/24 03:32:24;;;;;;;;;13.67;12.33;;;;;;;;114899;1203;25488;-79
2022/12/24 03:34:52;;;;;;;;;21.00;15.50;;;;;;;;114923;1197;25189;-79
2022/12/24 03:37:22;;;;;;;;;27.50;21.00;;;;;;;;114936;1200;25580;-79
2022/12/24 03:39:50;;;;;;;;;22.50;19.00;;;;;;;;114961;1201;25624;-79
2022/12/24 03:42:19;;;;;;;;;21.67;19.33;;;;;;;;114933;1200;24971;-79
2022/12/24 03:44:47;;;;;;;;;23.00;21.00;;;;;;;;114945;1206;25530;-79
2022/12/24 03:47:15;;;;;;;;;24.00;17.00;;;;;;;;114917;1203;25059;-80
2022/12/24 03:49:44;;;;;;;;;18.00;15.00;;;;;;;;114893;1193;25140;-80
2022/12/24 03:52:12;;;;;;;;;23.00;20.50;;;;;;;;114912;1200;24881;-79
2022/12/24 03:54:41;;;;;;;;;25.00;22.00;;;;;;;;114854;1200;25680;-79
2022/12/24 03:57:09;;;;;;;;;25.50;19.00;;;;;;;;114861;1200;25041;-81
2022/12/24 03:59:38;;;;;;;;;21.00;14.00;;;;;;;;114792;1208;25405;-83
2022/12/24 04:02:06;;;;;;;;;27.00;20.00;;;;;;;;114865;1194;25349;-81
2022/12/24 04:04:36;;;;;;;;;17.00;17.00;;;;;;;;114819;1195;24794;-80
2022/12/24 04:07:05;;;;;;;;;31.00;25.00;;;;;;;;114890;1194;25508;-79
2022/12/24 04:09:34;;;;;;;;;24.50;17.50;;;;;;;;114926;1203;24668;-79
2022/12/24 04:12:02;;;;;;;;;20.00;15.00;;;;;;;;114954;1201;25481;-79
2022/12/24 04:14:31;;;;;;;;;21.00;15.00;;;;;;;;114946;1200;24742;-79
2022/12/24 04:16:59;;;;;;;;;21.50;14.50;;;;;;;;114909;1203;25096;-79
2022/12/24 04:19:28;;;;;;;;;23.00;18.00;;;;;;;;114917;1203;24876;-79
2022/12/24 04:21:57;;;;;;;;;26.00;19.00;;;;;;;;114926;1208;24663;-79
2022/12/24 04:24:25;;;;;;;;;25.00;18.00;;;;;;;;114827;1199;24967;-79
2022/12/24 04:26:54;;;;;;;;;23.00;22.00;;;;;;;;114869;1200;25267;-79
2022/12/24 04:29:22;;;;;;;;;17.00;13.00;;;;;;;;114819;1199;25402;-79
2022/12/24 04:31:51;;;;;;;;;13.67;13.67;;;;;;;;114903;1197;25654;-79
2022/12/24 04:34:19;;;;;;;;;19.67;16.33;;;;;;;;114895;1203;24715;-79
2022/12/24 04:36:48;;;;;;;;;16.33;15.00;;;;;;;;114935;1193;24678;-79
2022/12/24 04:39:16;;;;;;;;;21.50;18.00;;;;;;;;114951;1200;24880;-79
2022/12/24 04:41:45;;;;;;;;;27.00;17.00;;;;;;;;114951;1201;25566;-79
2022/12/24 04:44:14;;;;;;;;;19.50;13.00;;;;;;;;114945;1203;25597;-79
2022/12/24 04:46:42;;;;;;;;;16.50;13.50;;;;;;;;114926;1208;25170;-79
2022/12/24 04:49:11;;;;;;;;;21.00;16.00;;;;;;;;114910;1199;25090;-79
2022/12/24 04:51:39;;;;;;;;;22.33;17.00;;;;;;;;114879;1207;24877;-78
2022/12/24 04:54:07;;;;;;;;;22.00;18.00;;;;;;;;114841;1202;25655;-79
2022/12/24 04:56:36;;;;;;;;;22.50;19.50;;;;;;;;114926;1207;25270;-79
2022/12/24 04:59:05;;;;;;;;;22.00;18.00;;;;;;;;114957;1200;24939;-79
2022/12/24 05:01:33;;;;;;;;;16.00;12.50;;;;;;;;114938;1200;25557;-80
2022/12/24 05:04:02;;;;;;;;;18.50;16.50;;;;;;;;114865;1203;25604;-79
2022/12/24 05:06:32;;;;;;;;;20.00;17.00;;;;;;;;114915;1203;24873;-79
2022/12/24 05:09:00;;;;;;;;;26.00;19.67;;;;;;;;114859;1204;25038;-79
2022/12/24 05:11:29;;;;;;;;;21.50;18.00;;;;;;;;114964;1200;25031;-79
2022/12/24 05:13:58;;;;;;;;;19.00;16.00;;;;;;;;114942;1200;25043;-79
2022/12/24 05:16:26;;;;;;;;;21.00;16.50;;;;;;;;114931;1203;25655;-80
2022/12/24 05:18:55;;;;;;;;;19.00;16.50;;;;;;;;114899;1208;25610;-80
2022/12/24 05:21:24;;;;;;;;;17.00;12.00;;;;;;;;114928;1203;25366;-78
2022/12/24 05:26:49;;;;;;;;;21.00;16.00;;;;;;;;114934;1203;25020;-81
2022/12/24 05:29:17;;;;;;;;;19.00;14.00;;;;;;;;114873;1203;25274;-79
2022/12/24 05:31:46;;;;;;;;;22.00;18.00;;;;;;;;114939;1200;25714;-80
2022/12/24 05:34:16;;;;;;;;;18.00;15.00;;;;;;;;114960;1200;25085;-80
2022/12/24 05:36:47;;;;;;;;;22.00;16.50;;;;;;;;114888;1200;25630;-81
2022/12/24 05:39:19;;;;;;;;;24.50;20.50;;;;;;;;114920;1203;25429;-81
2022/12/24 05:41:47;;;;;;;;;22.50;20.00;;;;;;;;114869;1202;25352;-80
2022/12/24 05:44:16;;;;;;;;;25.00;21.00;;;;;;;;114887;1208;25518;-79
2022/12/24 05:46:44;;;;;;;;;21.33;13.33;;;;;;;;114982;1208;25351;-80
2022/12/24 05:49:13;;;;;;;;;28.50;21.00;;;;;;;;114922;1204;25587;-80
2022/12/24 05:51:42;;;;;;;;;18.50;16.50;;;;;;;;114920;1194;24825;-80
2022/12/24 05:54:10;;;;;;;;;22.00;19.00;;;;;;;;114960;1203;25704;-79
2022/12/24 05:56:39;;;;;;;;;22.00;17.50;;;;;;;;114916;1206;24834;-79
2022/12/24 05:59:07;;;;;;;;;25.00;18.50;;;;;;;;114868;1207;24717;-81
2022/12/24 06:01:36;;;;;;;;;22.00;17.00;;;;;;;;114906;1200;25194;-81
2022/12/24 06:04:05;;;;;;;;;19.00;16.00;;;;;;;;114924;1208;25167;-80
2022/12/24 06:06:34;;;;;;;;;24.50;20.00;;;;;;;;114905;1197;24780;-79
2022/12/24 06:09:02;;;;;;;;;28.50;22.50;;;;;;;;114951;1201;25734;-79
2022/12/24 06:11:31;;;;;;;;;23.00;21.00;;;;;;;;114926;1203;25764;-78
2022/12/24 06:13:59;;;;;;;;;24.50;21.50;;;;;;;;114926;1203;25194;-80
2022/12/24 06:16:28;;;;;;;;;27.50;20.50;;;;;;;;114905;1206;25087;-79
2022/12/24 06:18:57;;;;;;;;;28.33;21.33;;;;;;;;114900;1206;25124;-82
2022/12/24 06:21:25;;;;;;;;;27.00;21.00;;;;;;;;114893;1200;25504;-82
2022/12/24 06:23:53;;;;;;;;;23.00;15.50;;;;;;;;114844;1203;24943;-82
2022/12/24 06:26:22;;;;;;;;;21.00;15.33;;;;;;;;114874;1200;25519;-82
2022/12/24 06:28:51;;;;;;;;;20.00;17.00;;;;;;;;114838;1204;25233;-81
2022/12/24 06:31:21;;;;;;;;;17.00;12.00;;;;;;;;114947;1200;25971;-82
2022/12/24 06:33:51;;;;;;;;;25.00;17.00;;;;;;;;114875;1204;25446;-80
2022/12/24 06:36:23;;;;;;;;;25.00;20.00;;;;;;;;114899;1200;25096;-82
2022/12/24 06:38:53;;;;;;;;;26.00;21.00;;;;;;;;114919;1200;24866;-82
2022/12/24 06:41:22;;;;;;;;;24.50;20.00;;;;;;;;114904;1200;24948;-82
2022/12/24 06:43:51;;;;;;;;;22.00;19.00;;;;;;;;114986;1200;24968;-80
2022/12/24 06:46:20;;;;;;;;;26.50;21.00;;;;;;;;114916;1203;24919;-80
2022/12/24 06:48:49;;;;;;;;;23.00;20.67;;;;;;;;114920;1203;25478;-81
2022/12/24 06:51:20;;;;;;;;;22.50;17.00;;;;;;;;114916;1204;25637;-80
2022/12/24 06:53:49;;;;;;;;;21.00;19.00;;;;;;;;114925;1200;25584;-79
2022/12/24 06:56:19;;;;;;;;;20.00;16.00;;;;;;;;114912;1194;25374;-79
2022/12/24 06:58:48;;;;;;;;;19.00;17.00;;;;;;;;114881;1199;26078;-82
2022/12/24 07:01:18;;;;;;;;;23.50;20.50;;;;;;;;114874;1199;25226;-82
2022/12/24 07:03:47;;;;;;;;;19.50;17.00;;;;;;;;114849;1205;26228;-81
2022/12/24 07:06:25;;;;;;;;;22.00;17.00;;;;;;;;114919;1203;25661;-80
2022/12/24 07:08:54;;;;;;;;;24.00;18.50;;;;;;;;114940;1203;25697;-83
2022/12/24 07:11:24;;;;;;;;;24.00;18.00;;;;;;;;114912;1203;26236;-81
2022/12/24 07:13:53;;;;;;;;;19.33;14.33;;;;;;;;114804;1200;24768;-83
2022/12/24 07:16:21;;;;;;;;;26.00;21.00;;;;;;;;114921;1208;25573;-82
2022/12/24 07:18:50;;;;;;;;;28.00;20.00;;;;;;;;114925;1203;24742;-82
2022/12/24 07:21:18;;;;;;;;;23.00;17.33;;;;;;;;114823;1200;25642;-81
2022/12/24 07:23:47;;;;;;;;;25.00;21.50;;;;;;;;114907;1200;25053;-80
2022/12/24 07:26:16;;;;;;;;;29.00;22.50;;;;;;;;114863;1203;25357;-81
2022/12/24 07:28:44;;;;;;;;;20.50;17.50;;;;;;;;114908;1204;25394;-82
2022/12/24 07:31:13;;;;;;;;;18.33;18.33;;;;;;;;114883;1206;25612;-83
2022/12/24 07:33:41;;;;;;;;;28.00;20.00;;;;;;;;114949;1203;25178;-80
2022/12/24 07:36:17;;;;;;;;;15.50;15.50;;;;;;;;114879;1195;25956;-86
2022/12/24 07:38:46;;;;;;;;;26.00;16.67;;;;;;;;114941;1208;24706;-87
2022/12/24 07:41:15;;;;;;;;;24.00;17.50;;;;;;;;114943;1203;24859;-88
2022/12/24 07:43:43;;;;;;;;;22.00;19.50;;;;;;;;114900;1199;25897;-83
2022/12/24 07:46:12;;;;;;;;;23.00;21.00;;;;;;;;114911;1203;25674;-79
2022/12/24 07:48:40;;;;;;;;;22.00;17.50;;;;;;;;114805;1200;24721;-79
2022/12/24 07:51:09;;;;;;;;;17.00;14.00;;;;;;;;114887;1200;25176;-81
2022/12/24 07:53:37;;;;;;;;;22.00;18.00;;;;;;;;114843;1203;24763;-79
2022/12/24 07:56:06;;;;;;;;;25.00;19.67;;;;;;;;114901;1200;25299;-80
2022/12/24 07:58:40;;;;;;;;;28.00;22.00;;;;;;;;114891;1202;25428;-81
2022/12/24 08:01:09;;;;;;;;;25.00;19.00;;;;;;;;114943;1203;26319;-80
2022/12/24 08:03:38;;;;;;;;;28.00;21.00;;;;;;;;114853;1208;25399;-80
2022/12/24 08:06:07;;;;;;;;;25.67;19.00;;;;;;;;114855;1203;24967;-80
2022/12/24 08:08:36;;;;;;;;;28.50;23.00;;;;;;;;114919;1203;24905;-80
2022/12/24 08:11:06;;;;;;;;;21.33;18.67;;;;;;;;114887;1207;24778;-79
2022/12/24 08:13:34;;;;;;;;;28.00;24.00;;;;;;;;114832;1200;25406;-77
2022/12/24 08:16:04;;;;;;;;;26.00;24.00;;;;;;;;114860;1203;25972;-80
2022/12/24 08:18:32;;;;;;;;;19.00;15.00;;;;;;;;114840;1203;25529;-74
2022/12/24 08:21:02;;;;;;;;;23.50;21.50;;;;;;;;114887;1201;25655;-81
2022/12/24 08:23:30;;;;;;;;;28.00;21.00;;;;;;;;114905;1206;25402;-79
2022/12/24 08:25:58;;;;;;;;;25.00;18.00;;;;;;;;114924;1201;25437;-79
2022/12/24 08:28:27;;;;;;;;;28.33;22.67;;;;;;;;114946;1203;25033;-81
2022/12/24 08:30:56;;;;;;;;;22.00;16.00;;;;;;;;114937;1203;25143;-78
2022/12/24 08:33:24;;;;;;;;;25.00;16.00;;;;;;;;114931;1203;24983;-80
2022/12/24 08:35:56;;;;;;;;;30.67;23.00;;;;;;;;114939;1203;24888;-81
2022/12/24 08:38:27;;;;;;;;;31.50;24.00;;;;;;;;114918;1200;25411;-79
2022/12/24 08:40:58;;;;;;;;;28.00;21.67;;;;;;;;114900;1196;25419;-79
2022/12/24 08:43:29;;;;;;;;;30.50;27.00;;;;;;;;114977;1206;24660;-81
2022/12/24 08:46:03;;;;;;;;;31.00;23.00;;;;;;;;114927;1199;25336;-79
2022/12/24 08:48:35;;;;;;;;;29.50;18.50;;;;;;;;114960;1203;24938;-80
2022/12/24 08:51:09;;;;;;;;;30.00;23.00;;;;;;;;114948;1198;25693;-79
2022/12/24 08:53:39;;;;;;;;;24.50;19.00;;;;;;;;114923;1206;25192;-80
2022/12/24 08:56:11;;;;;;;;;34.00;28.00;;;;;;;;114945;1203;24871;-81
2022/12/24 08:58:43;;;;;;;;;26.50;22.50;;;;;;;;114891;1196;25009;-83
2022/12/24 09:01:14;;;;;;;;;27.00;20.00;;;;;;;;114961;1203;25469;-80
2022/12/24 09:03:43;;;;;;;;;28.00;22.00;;;;;;;;114939;1208;25710;-83
2022/12/24 09:06:14;;;;;;;;;25.00;23.00;;;;;;;;114909;1201;24893;-80
2022/12/24 09:08:42;;;;;;;;;32.00;27.00;;;;;;;;114972;1203;24865;-81
2022/12/24 09:11:14;;;;;;;;;29.00;22.00;;;;;;;;114852;1204;24729;-82
2022/12/24 09:13:43;;;;;;;;;30.00;21.00;;;;;;;;114851;1200;24829;-82
2022/12/24 09:16:12;;;;;;;;;30.00;21.50;;;;;;;;114910;1199;25838;-82
2022/12/24 09:18:41;;;;;;;;;30.33;26.00;;;;;;;;114915;1200;25346;-83
2022/12/24 09:21:16;;;;;;;;;28.50;25.50;;;;;;;;114949;1203;25533;-83
2022/12/24 09:23:46;;;;;;;;;30.00;21.00;;;;;;;;114940;1200;24819;-81
2022/12/24 09:26:20;;;;;;;;;33.00;25.00;;;;;;;;114950;1206;25051;-82
2022/12/24 09:28:49;;;;;;;;;30.50;23.50;;;;;;;;114944;1196;24974;-84
2022/12/24 09:31:18;;;;;;;;;27.50;24.50;;;;;;;;114881;1203;25227;-84
2022/12/24 09:33:48;;;;;;;;;30.00;22.33;;;;;;;;114881;1202;25439;-82
2022/12/24 09:36:18;;;;;;;;;25.00;17.00;;;;;;;;114894;1203;25694;-82
2022/12/24 09:38:47;;;;;;;;;33.33;25.33;;;;;;;;114955;1203;25182;-84
2022/12/24 09:41:25;;;;;;;;;28.00;24.00;;;;;;;;114906;1200;24886;-83
2022/12/24 09:44:06;;;;;;;;;30.00;22.00;;;;;;;;114933;1207;25249;-84
2022/12/24 09:46:38;;;;;;;;;32.00;27.00;;;;;;;;114922;1203;24821;-81
2022/12/24 09:49:16;;;;;;;;;31.00;26.00;;;;;;;;114868;1199;26290;-82
2022/12/24 09:51:50;;;;;;;;;29.00;26.00;;;;;;;;114878;1200;26522;-83
2022/12/24 09:54:31;;;;;;;;;32.50;26.50;;;;;;;;114916;1198;25551;-83
2022/12/24 09:57:05;;;;;;;;;22.50;20.50;;;;;;;;114942;1203;25340;-80
2022/12/24 09:59:42;;;;;;;;;28.33;23.67;;;;;;;;114934;1200;24903;-82
2022/12/24 10:02:14;;;;;;;;;32.00;21.00;;;;;;;;114937;1207;25665;-76
2022/12/24 10:04:44;;;;;;;;;24.00;18.00;;;;;;;;114926;1203;25336;-76
2022/12/24 10:07:51;;;;;;;;;26.00;21.00;;;;;;;;114956;1203;24811;-76
2022/12/24 10:10:32;;;;;;;;;21.50;20.00;;;;;;;;114918;1192;25467;-74
2022/12/24 10:13:00;;;;;;;;;24.50;20.00;;;;;;;;114863;1198;25180;-75
2022/12/24 10:15:34;;;;;;;;;24.00;23.00;;;;;;;;114895;1206;25551;-75
2022/12/24 10:18:16;;;;;;;;;27.00;19.00;;;;;;;;114904;1200;25344;-75
2022/12/24 10:20:50;;;;;;;;;24.00;19.00;;;;;;;;114908;1203;24653;-75
2022/12/24 10:23:48;;;;;;;;;22.33;17.00;;;;;;;;114919;1193;24825;-75
2022/12/24 10:26:49;;;;;;;;;24.00;23.00;;;;;;;;114904;1203;26482;-75
2022/12/24 10:29:38;;;;;;;;;24.00;19.00;;;;;;;;114941;1200;25520;-74
2022/12/24 10:32:06;;;;;;;;;27.00;20.00;;;;;;;;114890;1203;24706;-76
2022/12/24 10:34:48;;;;;;;;;27.50;22.00;;;;;;;;114877;1208;25329;-75
2022/12/24 10:37:23;;;;;;;;;34.00;27.00;;;;;;;;114926;1203;24897;-75
2022/12/24 10:39:52;;;;;;;;;34.67;31.33;;;;;;;;114931;1200;24906;-75
2022/12/24 10:42:24;;;;;;;;;32.00;27.00;;;;;;;;114870;1200;24824;-75
2022/12/24 10:44:56;;;;;;;;;34.50;26.00;;;;;;;;114987;1194;25217;-75
2022/12/24 10:47:26;;;;;;;;;36.00;31.50;;;;;;;;114888;1197;25730;-75
2022/12/24 10:50:05;;;;;;;;;29.50;26.50;;;;;;;;114897;1203;25555;-74
2022/12/24 10:52:36;;;;;;;;;38.00;30.00;;;;;;;;114943;1208;24949;-75
2022/12/24 10:55:10;;;;;;;;;32.00;21.00;;;;;;;;114946;1197;25220;-75
2022/12/24 10:57:39;;;;;;;;;38.50;27.50;;;;;;;;114884;1208;25447;-74
2022/12/24 11:00:19;;;;;;;;;35.00;29.00;;;;;;;;114897;1203;24918;-75
2022/12/24 11:02:49;;;;;;;;;40.00;28.00;;;;;;;;114926;1202;24690;-74
2022/12/24 11:05:33;;;;;;;;;39.50;30.00;;;;;;;;114936;1200;25091;-75
2022/12/24 11:08:05;;;;;;;;;35.00;30.00;;;;;;;;114856;1196;25452;-75
2022/12/24 11:10:35;;;;;;;;;40.50;30.00;;;;;;;;114841;1200;25412;-75
2022/12/24 11:13:04;;;;;;;;;36.50;28.00;;;;;;;;114808;1200;24758;-84
2022/12/24 11:16:21;;;;;;;;;36.00;26.00;;;;;;;;114866;1206;25415;-76
2022/12/24 11:18:52;;;;;;;;;40.00;32.00;;;;;;;;114785;1208;25548;-76
2022/12/24 11:21:25;;;;;;;;;49.00;32.00;;;;;;;;114826;1208;25124;-78
2022/12/24 11:24:08;;;;;;;;;36.00;28.00;;;;;;;;114938;1203;25165;-79
2022/12/24 11:26:36;;;;;;;;;43.00;34.00;;;;;;;;114911;1200;25520;-78
2022/12/24 11:29:23;;;;;;;;;37.00;28.00;;;;;;;;114793;1203;24792;-77
2022/12/24 11:32:13;;;;;;;;;38.00;29.00;;;;;;;;114890;1206;24731;-75
2022/12/24 11:34:43;;;;;;;;;39.50;31.50;;;;;;;;114836;1199;25184;-75
2022/12/24 11:37:23;;;;;;;;;32.00;27.00;;;;;;;;114860;1200;25006;-75
2022/12/24 11:39:57;;;;;;;;;37.00;31.00;;;;;;;;114887;1204;24907;-74
2022/12/24 11:42:31;;;;;;;;;39.50;28.00;;;;;;;;114850;1200;25449;-74
2022/12/24 11:45:04;;;;;;;;;35.50;27.00;;;;;;;;114889;1206;25303;-73
2022/12/24 11:47:41;;;;;;;;;38.00;31.00;;;;;;;;114932;1201;25614;-75
2022/12/24 11:50:31;;;;;;;;;39.00;32.00;;;;;;;;114880;1200;24863;-76
2022/12/24 11:53:02;;;;;;;;;39.67;31.00;;;;;;;;114860;1197;25024;-74
2022/12/24 11:55:46;;;;;;;;;38.00;30.00;;;;;;;;114880;1208;25582;-74
2022/12/24 11:58:36;;;;;;;;;37.00;28.00;;;;;;;;114941;1200;25430;-73
2022/12/24 12:01:21;;;;;;;;;39.00;27.00;;;;;;;;114865;1197;24985;-74
2022/12/24 12:03:55;;;;;;;;;33.00;28.00;;;;;;;;114874;1195;25338;-75
2022/12/24 12:06:44;;;;;;;;;30.00;30.00;;;;;;;;114768;1206;25226;-74
2022/12/24 12:09:19;;;;;;;;;28.50;24.00;;;;;;;;114849;1206;25290;-74
2022/12/24 12:11:53;;;;;;;;;21.33;15.00;;;;;;;;114842;1206;25948;-74
2022/12/24 12:14:29;;;;;;;;;27.00;27.00;;;;;;;;114944;1193;25467;-74
2022/12/24 12:17:19;;;;;;;;;34.00;26.00;;;;;;;;114836;1201;25157;-75
2022/12/24 12:20:11;;;;;;;;;33.00;26.00;;;;;;;;114936;1203;25485;-75
2022/12/24 12:22:58;;;;;;;;;37.00;26.00;;;;;;;;114910;1200;26337;-75
2022/12/24 12:25:29;;;;;;;;;39.50;30.50;;;;;;;;114816;1200;25111;-74
2022/12/24 12:28:01;;;;;;;;;26.00;23.00;;;;;;;;114852;1200;25349;-75
2022/12/24 12:30:30;;;;;;;;;32.00;27.00;;;;;;;;114936;1199;24987;-74
2022/12/24 12:33:12;;;;;;;;;29.00;21.50;;;;;;;;114815;1200;25602;-75
2022/12/24 12:35:42;;;;;;;;;38.00;29.00;;;;;;;;114914;1207;25609;-75
2022/12/24 12:38:21;;;;;;;;;28.00;22.50;;;;;;;;114835;1200;25263;-75
2022/12/24 12:41:00;;;;;;;;;30.00;25.00;;;;;;;;114930;1207;25588;-75
2022/12/24 12:43:52;;;;;;;;;30.00;24.00;;;;;;;;114860;1200;24800;-75
2022/12/24 12:46:29;;;;;;;;;33.00;26.50;;;;;;;;114929;1203;24889;-75
2022/12/24 12:49:21;;;;;;;;;32.00;28.50;;;;;;;;114895;1200;25535;-74
2022/12/24 12:51:53;;;;;;;;;31.00;25.00;;;;;;;;114940;1203;24713;-74
2022/12/24 12:54:24;;;;;;;;;29.00;24.50;;;;;;;;114877;1203;24864;-74
2022/12/24 12:56:56;;;;;;;;;33.00;28.50;;;;;;;;114927;1205;25054;-75
2022/12/24 12:59:48;;;;;;;;;43.00;34.00;;;;;;;;115122;1208;25268;-75
2022/12/24 13:02:40;;;;;;;;;32.00;27.00;;;;;;;;114866;1206;25379;-77
2022/12/24 13:05:39;;;;;;;;;40.00;34.00;;;;;;;;115197;1200;24673;-74
2022/12/24 13:08:39;;;;;;;;;34.00;33.00;;;;;;;;114941;1198;25172;-77
2022/12/24 13:11:16;;;;;;;;;49.00;34.00;;;;;;;;114872;1202;25303;-75
2022/12/24 13:13:59;;;;;;;;;47.00;33.00;;;;;;;;114883;1206;25062;-76
2022/12/24 13:16:27;;;;;;;;;45.00;33.00;;;;;;;;114880;1200;25711;-76
2022/12/24 13:19:38;;;;;;;;;39.00;33.50;;;;;;;;114858;1198;25430;-72
2022/12/24 13:22:15;;;;;;;;;47.00;36.00;;;;;;;;114878;1208;24803;-73
2022/12/24 13:24:52;;;;;;;;;39.00;32.00;;;;;;;;114890;1201;24686;-73
2022/12/24 13:27:33;;;;;;;;;45.00;36.50;;;;;;;;114763;1202;25332;-73
2022/12/24 13:30:14;;;;;;;;;45.00;33.00;;;;;;;;114868;1206;25054;-74
2022/12/24 13:32:52;;;;;;;;;45.00;36.00;;;;;;;;114935;1203;25676;-74
2022/12/24 13:35:26;;;;;;;;;43.00;32.00;;;;;;;;114805;1204;25177;-76
2022/12/24 13:38:43;;;;;;;;;42.00;31.00;;;;;;;;114890;1206;25517;-75
2022/12/24 13:41:35;;;;;;;;;49.00;35.00;;;;;;;;114822;1203;24922;-75
2022/12/24 13:44:12;;;;;;;;;49.00;36.00;;;;;;;;114887;1208;24678;-76
2022/12/24 13:46:50;;;;;;;;;52.50;35.50;;;;;;;;114936;1203;25228;-75
2022/12/24 13:49:20;;;;;;;;;39.50;33.50;;;;;;;;114936;1200;24776;-75
2022/12/24 13:51:49;;;;;;;;;51.00;37.00;;;;;;;;114919;1196;25362;-75
2022/12/24 13:54:22;;;;;;;;;53.50;35.00;;;;;;;;114806;1203;25104;-75
2022/12/24 13:56:50;;;;;;;;;47.33;37.00;;;;;;;;114829;1204;24789;-75
2022/12/24 13:59:21;;;;;;;;;42.00;33.00;;;;;;;;114954;1192;24792;-75
2022/12/24 14:01:50;;;;;;;;;40.00;32.00;;;;;;;;114911;1203;25528;-76
2022/12/24 14:04:31;;;;;;;;;39.00;33.00;;;;;;;;114859;1208;25602;-74
2022/12/24 14:07:02;;;;;;;;;51.00;38.00;;;;;;;;114836;1203;25475;-75
2022/12/24 14:09:31;;;;;;;;;35.00;31.00;;;;;;;;114890;1207;24782;-75
2022/12/24 14:12:02;;;;;;;;;37.50;32.50;;;;;;;;114906;1204;25167;-75
2022/12/24 14:14:32;;;;;;;;;41.00;35.00;;;;;;;;114902;1203;25134;-75
2022/12/24 14:17:04;;;;;;;;;44.00;35.00;;;;;;;;114898;1200;25448;-75
2022/12/24 14:19:48;;;;;;;;;45.00;34.00;;;;;;;;114919;1199;25132;-75
2022/12/24 14:22:29;;;;;;;;;46.00;35.00;;;;;;;;114837;1196;25475;-75
2022/12/24 14:25:11;;;;;;;;;45.50;34.50;;;;;;;;114895;1208;25289;-75
2022/12/24 14:27:47;;;;;;;;;42.50;33.00;;;;;;;;114857;1206;25582;-75
2022/12/24 14:30:24;;;;;;;;;48.00;36.00;;;;;;;;114939;1203;25606;-75
2022/12/24 14:32:53;;;;;;;;;38.50;30.00;;;;;;;;114876;1206;24907;-74
2022/12/24 14:35:28;;;;;;;;;45.50;35.00;;;;;;;;114833;1208;25336;-74
2022/12/24 14:38:20;;;;;;;;;36.00;33.00;;;;;;;;114719;1198;25582;-74
2022/12/24 14:41:47;;;;;;;;;29.00;28.00;;;;;;;;114929;1203;26234;-75
2022/12/24 14:44:25;;;;;;;;;41.00;34.00;;;;;;;;114688;1208;25692;-75
2022/12/24 14:47:37;;;;;;;;;39.00;31.00;;;;;;;;114823;1206;25578;-75